Portada
METAR-TAF:

METAR-TAF

Aeroports :

Djanet, Algèria

latitud: 24-33N, longitud: 009-28E, altitud: 1054 m

Observació

L'informe es va fer fa 50 minuts, a les 13:00 UTC
Vent 5 kt del Oest/Sud-Oest
Temperatura 19°C
Pressió 1020 hPa
Visibilitat 10 km o més
sense núvols per sota de 1500 mi sense presència de cumulonimbus.

METAR: DAAJ 131300Z 24005KT CAVOK 19/// Q1020

Hora: 14:50 (13:50 UTC)

Pronòstic

L'informe es va fer fa 2 hores i 50 minuts, a les 11:00 UTC
Pronòstic vàlid del 13 a les 12 UTC al 14 a les 12 UTC
Vent 8 kt del Oest/Nord-Oest
Visibilitat 10 km o més
sense núvols per sota de 1500 mi sense presència de cumulonimbus.
Evolucionant progressivament
l' 13 a les 20 UTC al 13 a les 23 UTC
Vent 10 kt del Nord/Nord-Est

TAF: DAAJ 131100Z 1312/1412 29008KT CAVOK BECMG 1320/1323 02010KT

Observacions i pronòstics meteorològics de més de 4000 aeroports (METAR i TAF).

Les estacions disponibles són els punts grocs i vermells al mapa.

Posi el ratolí al punt desitjat per veure el nom de l'estació.

Feu clic per veure les observacions i els pronòstics meteorològics.

Per canviar el mapa: feu clic els botons verds amb una creu de color negre per apropar; al botó verd amb un guió per allunyar la imatge; o en les fletxes verdes per a mapes adjacents.


METAR-TAF: